Time;durP1;ratioP1;P1;durP2;ratioP2;P2;SDS_P1;SDS_P2;PMS_P1;PMS_P2;Temp;Humidity;BMP_temperature;BMP_pressure;BME280_temperature;BME280_humidity;BME280_pressure;Samples;Min_cycle;Max_cycle;Signal;HPM_P1;HPM_P2
2022/03/31 00:00:42;;;;;;;49.50;34.95;;;8.20;82.00;;;;;;5017537;28;20494;-74
2022/03/31 00:03:10;;;;;;;48.35;33.20;;;8.20;82.10;;;;;;5017071;28;20139;-75
2022/03/31 00:05:36;;;;;;;55.70;34.38;;;8.20;82.20;;;;;;5017832;28;20037;-75
2022/03/31 00:08:06;;;;;;;54.58;34.95;;;8.20;82.20;;;;;;5016839;28;20029;-75
2022/03/31 00:10:34;;;;;;;52.40;34.75;;;8.20;82.20;;;;;;5024281;28;20037;-76
2022/03/31 00:13:02;;;;;;;50.60;34.67;;;8.20;82.00;;;;;;5003383;28;20041;-76
2022/03/31 00:15:29;;;;;;;53.03;34.35;;;8.20;81.90;;;;;;5027785;28;20040;-78
2022/03/31 00:17:57;;;;;;;49.15;32.78;;;8.20;81.90;;;;;;5029143;28;20049;-75
2022/03/31 00:20:23;;;;;;;52.92;34.28;;;8.10;82.10;;;;;;5017043;28;20040;-76
2022/03/31 00:22:48;;;;;;;49.10;32.75;;;8.10;82.00;;;;;;5015506;28;20039;-76
2022/03/31 00:25:14;;;;;;;45.75;32.25;;;8.10;82.10;;;;;;5016529;28;20033;-72
2022/03/31 00:27:41;;;;;;;50.47;33.35;;;8.10;82.10;;;;;;5018215;28;20033;-75
2022/03/31 00:30:10;;;;;;;51.53;34.22;;;8.10;82.10;;;;;;5016014;28;20038;-76
2022/03/31 00:32:36;;;;;;;50.83;33.53;;;8.10;82.00;;;;;;5016066;28;20086;-75
2022/03/31 00:35:03;;;;;;;52.90;33.97;;;8.10;82.10;;;;;;5006886;28;20103;-75
2022/03/31 00:37:29;;;;;;;49.78;33.33;;;8.00;82.30;;;;;;5016886;28;20026;-75
2022/03/31 00:39:55;;;;;;;50.63;32.83;;;8.00;82.40;;;;;;4998133;28;20033;-73
2022/03/31 00:42:22;;;;;;;51.13;32.58;;;8.00;82.50;;;;;;5015785;28;20042;-75
2022/03/31 00:44:48;;;;;;;47.67;31.55;;;8.00;82.70;;;;;;5016726;28;20761;-74
2022/03/31 00:47:15;;;;;;;51.83;32.58;;;8.00;82.70;;;;;;5017678;28;20640;-75
2022/03/31 00:49:41;;;;;;;48.92;31.77;;;7.90;82.60;;;;;;5008285;28;20030;-75
2022/03/31 00:52:07;;;;;;;50.22;32.42;;;7.90;82.70;;;;;;5016330;28;20040;-77
2022/03/31 00:54:34;;;;;;;49.33;30.90;;;7.90;82.90;;;;;;5015876;28;20046;-75
2022/03/31 00:57:02;;;;;;;47.63;29.63;;;7.90;82.80;;;;;;5015324;28;20033;-74
2022/03/31 00:59:29;;;;;;;50.88;31.00;;;7.90;82.90;;;;;;5015498;28;20073;-77
2022/03/31 01:01:56;;;;;;;53.30;32.92;;;7.90;83.00;;;;;;5016493;28;20092;-74
2022/03/31 01:04:22;;;;;;;50.53;31.90;;;7.90;83.10;;;;;;5013171;28;20488;-73
2022/03/31 01:06:49;;;;;;;50.58;31.90;;;7.80;83.30;;;;;;5016408;28;20552;-75
2022/03/31 01:09:15;;;;;;;45.58;30.05;;;7.80;83.30;;;;;;5016319;28;20038;-74
2022/03/31 01:11:41;;;;;;;36.63;24.92;;;7.70;83.30;;;;;;5016797;28;20083;-75
2022/03/31 01:14:07;;;;;;;35.67;20.25;;;7.70;82.90;;;;;;5015039;28;20484;-75
2022/03/31 01:16:34;;;;;;;28.15;18.33;;;7.60;82.70;;;;;;5016361;28;20587;-75
2022/03/31 01:19:07;;;;;;;24.23;16.15;;;7.60;82.50;;;;;;5016784;28;20047;-76
2022/03/31 01:21:42;;;;;;;25.13;15.52;;;7.50;82.70;;;;;;4998198;28;20435;-76
2022/03/31 01:24:09;;;;;;;18.42;13.27;;;7.40;82.70;;;;;;5016316;28;20068;-75
2022/03/31 01:26:38;;;;;;;19.73;12.48;;;7.40;82.90;;;;;;5015502;28;20427;-76
2022/03/31 01:29:04;;;;;;;15.98;11.98;;;7.30;82.70;;;;;;5014867;28;20167;-73
2022/03/31 01:31:30;;;;;;;18.48;12.23;;;7.00;82.30;;;;;;4998003;28;20029;-75
2022/03/31 01:33:57;;;;;;;16.65;11.70;;;6.80;82.90;;;;;;5016195;28;20041;-76
2022/03/31 01:36:22;;;;;;;16.65;12.15;;;6.80;82.80;;;;;;5015462;28;20099;-74
2022/03/31 01:38:48;;;;;;;19.23;13.23;;;6.70;82.80;;;;;;5013573;28;20041;-77
2022/03/31 01:41:14;;;;;;;21.77;15.02;;;6.60;83.10;;;;;;5014553;28;20030;-74
2022/03/31 01:43:39;;;;;;;22.80;17.52;;;6.60;83.40;;;;;;5012090;28;20485;-75
2022/03/31 01:46:08;;;;;;;24.05;19.48;;;6.50;83.20;;;;;;5008764;28;20048;-75
2022/03/31 01:48:37;;;;;;;27.95;20.52;;;6.40;83.60;;;;;;5016325;28;20037;-74
2022/03/31 01:51:04;;;;;;;30.13;21.10;;;6.30;83.50;;;;;;5022424;28;20559;-75
2022/03/31 01:53:31;;;;;;;24.33;20.58;;;6.30;83.80;;;;;;5013784;28;20488;-75
2022/03/31 01:55:57;;;;;;;27.23;21.77;;;6.30;83.90;;;;;;5016833;28;20084;-75
2022/03/31 01:58:23;;;;;;;32.65;23.50;;;6.20;84.00;;;;;;5015216;28;20033;-74
2022/03/31 02:00:50;;;;;;;31.73;23.48;;;6.10;84.00;;;;;;5013977;28;20831;-75
2022/03/31 02:03:16;;;;;;;34.28;24.70;;;6.10;83.90;;;;;;5014921;28;20044;-76
2022/03/31 02:05:42;;;;;;;28.40;23.48;;;6.10;84.00;;;;;;5012811;28;20400;-75
2022/03/31 02:08:08;;;;;;;26.63;23.23;;;6.00;84.00;;;;;;5007239;28;20045;-75
2022/03/31 02:10:33;;;;;;;28.88;22.60;;;5.90;84.20;;;;;;5020664;28;20041;-77
2022/03/31 02:13:01;;;;;;;29.38;22.50;;;5.80;84.50;;;;;;5016851;28;20041;-75
2022/03/31 02:15:29;;;;;;;25.35;21.05;;;5.70;84.60;;;;;;5000393;28;20403;-75
2022/03/31 02:17:55;;;;;;;26.48;20.23;;;5.60;84.50;;;;;;5020268;28;20057;-75
2022/03/31 02:20:21;;;;;;;26.15;21.35;;;5.40;84.60;;;;;;5003174;28;20378;-75
2022/03/31 02:22:47;;;;;;;25.77;20.38;;;5.30;85.00;;;;;;5003836;28;20415;-77
2022/03/31 02:25:12;;;;;;;24.00;19.13;;;5.30;85.40;;;;;;5020225;28;20037;-75
2022/03/31 02:27:38;;;;;;;20.08;16.17;;;5.10;85.00;;;;;;5020723;28;20034;-76
2022/03/31 02:30:07;;;;;;;19.58;15.18;;;5.10;84.90;;;;;;5020233;28;20041;-75
2022/03/31 02:32:33;;;;;;;18.73;14.85;;;4.90;84.20;;;;;;5018421;28;20044;-75
2022/03/31 02:34:58;;;;;;;18.05;14.93;;;4.70;84.60;;;;;;5020041;28;20045;-75
2022/03/31 02:37:25;;;;;;;20.40;14.98;;;4.70;84.60;;;;;;5013119;28;20052;-75
2022/03/31 02:39:51;;;;;;;18.20;13.82;;;4.70;84.80;;;;;;5020643;28;20033;-75
2022/03/31 02:42:17;;;;;;;18.00;13.23;;;4.70;84.60;;;;;;5020577;28;20041;-76
2022/03/31 02:44:44;;;;;;;17.42;11.73;;;4.60;84.20;;;;;;4993044;28;20048;-74
2022/03/31 02:47:10;;;;;;;16.92;11.40;;;4.40;84.70;;;;;;5019207;28;20061;-75
2022/03/31 02:49:35;;;;;;;16.67;12.05;;;4.40;84.70;;;;;;5001915;28;20485;-76
2022/03/31 02:52:01;;;;;;;14.85;10.80;;;4.20;84.80;;;;;;5019652;28;20486;-76
2022/03/31 02:57:12;;;;;;;14.32;10.63;;;4.10;85.30;;;;;;5019623;28;20314;-75
2022/03/31 02:59:38;;;;;;;13.32;10.00;;;4.20;85.10;;;;;;5018345;28;20893;-75
2022/03/31 03:02:04;;;;;;;12.02;8.57;;;4.10;85.20;;;;;;4997252;28;20040;-73
2022/03/31 03:04:30;;;;;;;11.40;7.60;;;4.10;85.30;;;;;;5018513;28;20084;-75
2022/03/31 03:06:56;;;;;;;11.48;8.23;;;4.00;85.40;;;;;;5019016;28;20037;-74
2022/03/31 03:09:22;;;;;;;11.00;7.78;;;4.00;85.60;;;;;;5002090;28;20452;-74
2022/03/31 03:11:48;;;;;;;10.25;7.70;;;4.10;85.50;;;;;;5019329;28;20035;-74
2022/03/31 03:14:14;;;;;;;10.43;7.65;;;3.90;85.60;;;;;;5009864;28;20103;-73
2022/03/31 03:16:40;;;;;;;11.90;8.00;;;3.90;85.70;;;;;;5019801;28;20046;-74
2022/03/31 03:19:06;;;;;;;12.40;8.55;;;3.80;85.80;;;;;;5019705;28;20388;-73
2022/03/31 03:21:32;;;;;;;11.55;7.43;;;3.80;85.80;;;;;;5000910;28;20426;-73
2022/03/31 03:23:58;;;;;;;12.68;9.27;;;3.80;85.80;;;;;;5008812;28;20037;-75
2022/03/31 03:26:24;;;;;;;12.90;8.30;;;3.80;85.80;;;;;;5019593;28;20040;-73
2022/03/31 03:28:49;;;;;;;13.25;9.10;;;3.90;85.60;;;;;;5018741;28;20100;-74
2022/03/31 03:31:15;;;;;;;12.23;9.32;;;3.70;85.40;;;;;;5020449;28;20389;-76
2022/03/31 03:33:41;;;;;;;12.93;8.80;;;3.70;85.60;;;;;;5013804;28;20107;-74
2022/03/31 03:36:10;;;;;;;10.65;7.90;;;3.80;85.80;;;;;;5018210;28;20068;-74
2022/03/31 03:38:36;;;;;;;13.40;9.05;;;3.80;85.60;;;;;;5019340;28;20067;-74
2022/03/31 03:41:01;;;;;;;11.15;8.27;;;3.80;85.40;;;;;;5019517;28;20049;-74
2022/03/31 03:43:28;;;;;;;14.82;8.43;;;3.80;85.50;;;;;;5019341;28;20064;-76
2022/03/31 03:45:54;;;;;;;12.35;7.35;;;3.80;85.70;;;;;;5019309;28;20032;-75
2022/03/31 03:48:21;;;;;;;10.93;7.63;;;3.80;85.80;;;;;;5017872;28;20431;-74
2022/03/31 03:50:47;;;;;;;10.23;6.68;;;3.80;85.50;;;;;;5018161;28;20038;-73
2022/03/31 03:53:13;;;;;;;11.38;6.65;;;3.70;85.30;;;;;;5018267;28;20180;-74
2022/03/31 03:55:38;;;;;;;10.90;5.85;;;3.70;85.60;;;;;;5017894;28;20431;-75
2022/03/31 03:58:04;;;;;;;9.15;5.55;;;3.70;85.70;;;;;;4999448;28;20586;-75
2022/03/31 04:00:30;;;;;;;8.20;5.43;;;3.70;86.00;;;;;;5017739;28;20037;-77
2022/03/31 04:02:57;;;;;;;8.00;5.07;;;3.80;86.40;;;;;;5016447;28;20377;-75
2022/03/31 04:05:22;;;;;;;7.25;4.97;;;3.80;86.10;;;;;;5016868;28;20041;-74
2022/03/31 04:07:48;;;;;;;7.30;5.07;;;3.70;86.60;;;;;;5017468;28;20040;-74
2022/03/31 04:10:14;;;;;;;7.95;5.10;;;3.70;86.60;;;;;;5017925;28;20046;-74
2022/03/31 04:12:40;;;;;;;8.55;5.18;;;3.70;86.80;;;;;;5007489;28;20046;-74
2022/03/31 04:15:07;;;;;;;8.00;5.53;;;3.60;86.90;;;;;;4998400;28;20053;-74
2022/03/31 04:17:34;;;;;;;7.97;5.13;;;3.60;87.00;;;;;;5017888;28;20063;-76
2022/03/31 04:19:59;;;;;;;8.70;5.57;;;3.70;87.00;;;;;;5016994;28;20048;-75
2022/03/31 04:22:26;;;;;;;12.20;7.05;;;3.60;87.30;;;;;;5017039;28;20033;-74
2022/03/31 04:24:51;;;;;;;10.48;7.32;;;3.50;87.40;;;;;;4987880;28;20548;-75
2022/03/31 04:27:17;;;;;;;11.02;7.65;;;3.50;87.10;;;;;;4998800;28;20033;-75
2022/03/31 04:29:43;;;;;;;11.50;8.13;;;3.50;87.30;;;;;;4995268;28;20781;-73
2022/03/31 04:32:09;;;;;;;12.35;8.40;;;3.50;87.40;;;;;;5015345;28;20052;-75
2022/03/31 04:34:36;;;;;;;14.00;9.02;;;3.40;87.20;;;;;;5015090;28;20439;-73
2022/03/31 04:37:02;;;;;;;13.70;9.00;;;3.40;87.40;;;;;;5015614;28;20524;-74
2022/03/31 04:39:28;;;;;;;14.55;10.25;;;3.50;87.50;;;;;;5016550;28;20040;-75
2022/03/31 04:41:54;;;;;;;14.27;9.38;;;3.50;87.50;;;;;;5019408;28;20558;-73
2022/03/31 04:44:20;;;;;;;15.15;10.25;;;3.50;87.20;;;;;;5015327;28;20068;-74
2022/03/31 04:46:46;;;;;;;13.93;9.55;;;3.50;87.50;;;;;;5017153;28;20101;-73
2022/03/31 04:49:12;;;;;;;17.38;11.10;;;3.60;87.40;;;;;;5015327;28;20080;-74
2022/03/31 04:51:38;;;;;;;16.50;11.02;;;3.50;86.80;;;;;;5016242;28;20128;-75
2022/03/31 04:54:04;;;;;;;16.17;11.57;;;3.50;86.80;;;;;;4995041;28;20057;-77
2022/03/31 04:56:30;;;;;;;17.23;11.90;;;3.50;87.30;;;;;;5002602;28;20069;-74
2022/03/31 04:58:56;;;;;;;17.83;12.27;;;3.40;87.20;;;;;;5016458;28;20037;-74
2022/03/31 05:01:23;;;;;;;18.38;13.43;;;3.40;86.90;;;;;;5016910;28;20042;-76
2022/03/31 05:03:49;;;;;;;18.95;13.10;;;3.40;87.20;;;;;;5015811;28;20037;-75
2022/03/31 05:06:16;;;;;;;19.73;14.15;;;3.50;87.20;;;;;;5012424;28;20472;-75
2022/03/31 05:08:43;;;;;;;18.70;12.27;;;3.50;87.20;;;;;;5016035;28;20033;-76
2022/03/31 05:11:09;;;;;;;20.02;14.80;;;3.50;86.90;;;;;;5004484;28;20469;-75
2022/03/31 05:13:35;;;;;;;20.92;14.32;;;3.50;87.10;;;;;;5001199;28;20046;-76
2022/03/31 05:16:01;;;;;;;22.83;16.13;;;3.50;87.20;;;;;;5017082;28;20408;-74
2022/03/31 05:18:26;;;;;;;24.17;17.45;;;3.40;87.20;;;;;;5014844;28;20052;-74
2022/03/31 05:20:52;;;;;;;23.23;15.25;;;3.40;87.00;;;;;;5016246;28;20393;-75
2022/03/31 05:23:18;;;;;;;22.23;15.88;;;3.40;87.20;;;;;;5011659;28;20187;-74
2022/03/31 05:25:44;;;;;;;22.00;15.60;;;3.50;87.30;;;;;;5015018;28;20040;-74
2022/03/31 05:28:11;;;;;;;20.98;14.93;;;3.50;87.30;;;;;;4995006;28;20029;-75
2022/03/31 05:30:37;;;;;;;21.77;15.07;;;3.60;87.00;;;;;;5013478;28;20524;-75
2022/03/31 05:33:03;;;;;;;21.63;15.05;;;3.50;86.90;;;;;;5002339;28;20064;-75
2022/03/31 05:35:29;;;;;;;19.73;15.07;;;3.50;86.80;;;;;;5009190;28;20494;-73
2022/03/31 05:37:55;;;;;;;20.52;15.65;;;3.50;86.70;;;;;;5000321;28;20088;-74
2022/03/31 05:40:22;;;;;;;20.83;15.10;;;3.50;86.70;;;;;;5013573;28;20040;-73
2022/03/31 05:42:48;;;;;;;22.20;16.23;;;3.50;86.60;;;;;;5014220;28;20059;-74
2022/03/31 05:45:14;;;;;;;20.65;15.88;;;3.50;86.70;;;;;;5014880;28;20049;-73
2022/03/31 05:47:42;;;;;;;22.48;17.65;;;3.50;86.70;;;;;;5015378;28;20092;-75
2022/03/31 05:50:09;;;;;;;22.42;16.63;;;3.50;86.70;;;;;;5012318;28;20087;-74
2022/03/31 05:52:38;;;;;;;23.85;18.10;;;3.60;86.60;;;;;;5016267;28;20080;-74
2022/03/31 05:55:06;;;;;;;23.55;18.65;;;3.60;86.30;;;;;;4996681;28;20139;-75
2022/03/31 05:57:33;;;;;;;25.60;18.83;;;3.60;86.30;;;;;;5015351;28;20071;-76
2022/03/31 05:59:59;;;;;;;25.33;19.63;;;3.60;86.20;;;;;;5013634;28;20124;-77
2022/03/31 06:02:25;;;;;;;22.30;18.42;;;3.80;86.20;;;;;;4998606;28;20443;-77
2022/03/31 06:04:51;;;;;;;22.50;17.48;;;3.70;85.90;;;;;;5011897;28;20566;-75
2022/03/31 06:07:17;;;;;;;21.48;16.52;;;3.70;86.10;;;;;;5015678;28;20033;-74
2022/03/31 06:09:42;;;;;;;21.02;15.50;;;3.80;85.80;;;;;;4998102;28;20030;-75
2022/03/31 06:12:09;;;;;;;16.60;12.50;;;3.80;85.40;;;;;;5015251;28;20060;-75
2022/03/31 06:14:35;;;;;;;15.30;10.93;;;3.90;85.20;;;;;;5016309;28;20037;-77
2022/03/31 06:17:00;;;;;;;14.80;10.55;;;3.90;84.90;;;;;;5016631;28;20045;-77
2022/03/31 06:19:26;;;;;;;13.63;10.25;;;3.90;84.40;;;;;;5016507;28;20477;-76
2022/03/31 06:21:51;;;;;;;11.43;7.38;;;4.00;84.40;;;;;;5015228;28;20070;-76
2022/03/31 06:24:17;;;;;;;8.65;5.65;;;4.00;84.20;;;;;;5017127;28;20099;-75
2022/03/31 06:26:43;;;;;;;8.23;4.55;;;4.00;83.60;;;;;;5004936;28;20045;-75
2022/03/31 06:29:09;;;;;;;9.00;5.25;;;4.00;83.20;;;;;;4995936;28;20133;-75
2022/03/31 06:31:38;;;;;;;8.38;5.30;;;3.90;83.40;;;;;;5001952;28;20523;-75
2022/03/31 06:34:03;;;;;;;7.95;4.82;;;4.00;83.60;;;;;;5002445;28;20046;-74
2022/03/31 06:36:30;;;;;;;9.07;4.45;;;4.20;83.60;;;;;;5003427;28;20026;-75
2022/03/31 06:38:56;;;;;;;8.52;4.78;;;4.20;83.50;;;;;;5002521;28;20064;-76
2022/03/31 06:41:22;;;;;;;9.30;4.35;;;4.20;83.10;;;;;;5004587;28;20180;-75
2022/03/31 06:43:48;;;;;;;8.70;4.93;;;4.30;83.20;;;;;;5006449;28;20033;-76
2022/03/31 06:46:16;;;;;;;9.63;5.88;;;4.40;82.70;;;;;;5002657;28;20164;-76
2022/03/31 06:48:43;;;;;;;8.98;5.63;;;4.40;82.60;;;;;;5005724;28;20033;-75
2022/03/31 06:51:10;;;;;;;8.10;5.78;;;4.40;82.70;;;;;;5004261;28;20025;-76
2022/03/31 06:53:37;;;;;;;10.02;6.95;;;4.50;82.20;;;;;;5001445;28;20228;-74
2022/03/31 06:56:08;;;;;;;9.93;7.20;;;4.50;82.30;;;;;;5006505;28;20030;-75
2022/03/31 06:58:34;;;;;;;9.35;7.35;;;4.50;82.20;;;;;;5004257;28;20030;-75
2022/03/31 07:01:00;;;;;;;8.98;7.28;;;4.60;82.40;;;;;;5010069;28;20531;-75
2022/03/31 07:03:27;;;;;;;9.27;7.43;;;4.60;81.70;;;;;;5011745;28;20069;-74
2022/03/31 07:05:53;;;;;;;11.30;8.52;;;4.60;81.90;;;;;;5017128;28;20033;-74
2022/03/31 07:08:19;;;;;;;10.40;8.02;;;4.60;81.70;;;;;;5000346;28;20428;-75
2022/03/31 07:10:44;;;;;;;12.52;9.75;;;4.60;81.40;;;;;;4999032;28;20046;-74
2022/03/31 07:13:11;;;;;;;10.75;8.50;;;4.60;81.30;;;;;;5007592;28;21036;-75
2022/03/31 07:15:37;;;;;;;11.35;9.10;;;4.60;81.30;;;;;;5011509;28;20129;-74
2022/03/31 07:18:04;;;;;;;10.57;8.77;;;4.60;81.40;;;;;;5013821;28;20075;-74
2022/03/31 07:20:30;;;;;;;10.68;8.50;;;4.60;81.00;;;;;;5019521;28;20120;-75
2022/03/31 07:22:56;;;;;;;10.55;8.98;;;4.40;80.90;;;;;;5018421;28;20045;-75
2022/03/31 07:25:21;;;;;;;10.55;9.20;;;4.40;81.40;;;;;;5018804;28;20092;-73
2022/03/31 07:27:50;;;;;;;11.20;8.88;;;4.40;81.40;;;;;;5014231;28;20420;-74
2022/03/31 07:30:18;;;;;;;12.35;9.98;;;4.40;80.60;;;;;;5009743;28;20076;-75
2022/03/31 07:32:51;;;;;;;12.32;10.57;;;4.50;81.10;;;;;;5016930;28;20160;-76
2022/03/31 07:35:18;;;;;;;13.85;10.68;;;4.60;80.80;;;;;;5017445;28;20056;-77
2022/03/31 07:37:44;;;;;;;14.15;10.95;;;4.60;80.50;;;;;;5018301;28;20061;-75
2022/03/31 07:40:10;;;;;;;14.05;11.52;;;4.70;80.60;;;;;;5001246;28;20042;-76
2022/03/31 07:42:36;;;;;;;15.25;11.63;;;4.70;79.90;;;;;;5019528;28;20037;-75
2022/03/31 07:45:02;;;;;;;15.35;11.63;;;4.80;80.20;;;;;;5013703;28;20038;-76
2022/03/31 07:47:27;;;;;;;13.20;11.15;;;4.80;79.60;;;;;;5018359;28;20668;-76
2022/03/31 07:49:53;;;;;;;11.95;10.68;;;4.90;79.10;;;;;;5013985;28;20045;-77
2022/03/31 07:52:21;;;;;;;12.35;11.05;;;4.90;78.60;;;;;;5007635;28;20038;-76
2022/03/31 07:54:48;;;;;;;12.30;10.60;;;5.10;78.90;;;;;;5009424;28;20038;-77
2022/03/31 07:57:14;;;;;;;12.10;10.02;;;5.10;78.30;;;;;;5007833;28;20481;-74
2022/03/31 07:59:40;;;;;;;10.60;8.98;;;5.10;78.40;;;;;;5010977;28;20056;-75
2022/03/31 08:02:06;;;;;;;11.98;9.40;;;5.10;78.10;;;;;;5012827;28;20036;-76
2022/03/31 08:04:32;;;;;;;11.70;9.57;;;5.10;77.70;;;;;;5017229;28;20069;-75
2022/03/31 08:06:59;;;;;;;11.52;9.23;;;5.20;77.80;;;;;;5018129;28;20188;-77
2022/03/31 08:09:25;;;;;;;12.13;9.48;;;5.40;77.60;;;;;;5015902;28;20069;-75
2022/03/31 08:11:51;;;;;;;11.88;9.18;;;5.50;76.00;;;;;;5017309;28;20044;-78
2022/03/31 08:14:19;;;;;;;13.75;10.30;;;5.50;75.90;;;;;;5014686;28;20057;-78
2022/03/31 08:16:47;;;;;;;11.82;9.07;;;5.60;76.20;;;;;;5015649;28;20037;-79
2022/03/31 08:19:15;;;;;;;15.25;8.30;;;5.70;75.20;;;;;;4996303;28;20044;-78
2022/03/31 08:21:42;;;;;;;10.88;7.35;;;5.60;73.80;;;;;;5005815;28;20116;-75
2022/03/31 08:24:08;;;;;;;11.68;8.23;;;5.60;74.60;;;;;;5007362;28;20034;-76
2022/03/31 08:26:34;;;;;;;13.10;8.02;;;5.80;74.50;;;;;;5014768;28;20029;-78
2022/03/31 08:29:00;;;;;;;14.13;7.70;;;6.00;72.70;;;;;;5017803;28;20328;-77
2022/03/31 08:31:27;;;;;;;10.07;6.50;;;6.10;73.40;;;;;;5018153;28;20052;-75
2022/03/31 08:33:53;;;;;;;8.88;5.78;;;6.00;72.80;;;;;;4996543;28;20038;-76
2022/03/31 08:36:20;;;;;;;12.27;6.53;;;6.20;72.20;;;;;;5009466;28;20037;-75
2022/03/31 08:38:46;;;;;;;10.88;6.40;;;6.50;72.10;;;;;;5017370;28;20041;-74
2022/03/31 08:41:14;;;;;;;9.15;6.00;;;6.60;70.30;;;;;;5018250;28;20035;-75
2022/03/31 08:43:42;;;;;;;9.13;5.18;;;6.60;69.80;;;;;;5018090;28;20120;-75
2022/03/31 08:46:10;;;;;;;9.23;5.25;;;6.50;69.70;;;;;;5016723;28;20033;-75
2022/03/31 08:48:39;;;;;;;7.88;4.57;;;6.40;70.00;;;;;;5011629;28;20045;-76
2022/03/31 08:51:05;;;;;;;9.70;4.22;;;6.40;70.10;;;;;;5018693;28;20049;-76
2022/03/31 08:53:32;;;;;;;8.27;4.38;;;6.50;69.70;;;;;;5016721;28;20467;-77
2022/03/31 08:55:58;;;;;;;10.43;4.00;;;6.40;69.70;;;;;;5019089;28;20048;-75
2022/03/31 08:58:25;;;;;;;9.25;4.22;;;6.30;70.10;;;;;;5001717;28;20033;-75
2022/03/31 09:00:50;;;;;;;15.35;5.15;;;6.40;70.40;;;;;;5000779;28;20459;-74
2022/03/31 09:03:17;;;;;;;6.82;3.83;;;6.60;70.00;;;;;;5017329;28;20037;-75
2022/03/31 09:05:54;;;;;;;9.70;3.97;;;6.70;70.30;;;;;;5018776;28;20100;-76
2022/03/31 09:08:20;;;;;;;8.57;3.65;;;6.80;69.80;;;;;;5025155;28;20034;-75
2022/03/31 09:10:49;;;;;;;8.52;4.05;;;6.70;69.40;;;;;;5005648;28;20030;-75
2022/03/31 09:13:19;;;;;;;11.52;5.30;;;6.70;69.60;;;;;;4999879;28;20045;-76
2022/03/31 09:15:53;;;;;;;11.50;5.53;;;6.50;69.10;;;;;;5017842;28;20468;-76
2022/03/31 09:18:21;;;;;;;8.40;5.88;;;6.60;69.90;;;;;;5010118;28;20091;-75
2022/03/31 09:20:48;;;;;;;9.45;5.80;;;6.60;69.90;;;;;;5007939;28;20045;-76
2022/03/31 09:23:19;;;;;;;10.20;6.53;;;6.90;69.60;;;;;;5007842;28;20848;-75
2022/03/31 09:25:45;;;;;;;9.77;5.93;;;7.00;68.80;;;;;;5010408;28;20034;-76
2022/03/31 09:28:18;;;;;;;10.13;6.43;;;7.10;69.60;;;;;;5012768;28;20042;-75
2022/03/31 09:30:53;;;;;;;10.65;7.13;;;7.40;69.70;;;;;;5016102;28;20787;-73
2022/03/31 09:33:29;;;;;;;13.20;6.55;;;7.30;68.80;;;;;;5011840;28;20042;-74
2022/03/31 09:35:57;;;;;;;10.70;7.55;;;7.10;70.00;;;;;;5007239;28;20788;-75
2022/03/31 09:38:22;;;;;;;11.90;7.55;;;6.90;70.70;;;;;;5011618;28;20041;-74
2022/03/31 09:40:48;;;;;;;10.77;6.15;;;6.60;72.70;;;;;;5002652;28;20069;-76
2022/03/31 09:43:14;;;;;;;8.35;5.32;;;6.20;74.20;;;;;;5004346;28;20144;-75
2022/03/31 09:45:41;;;;;;;6.10;3.47;;;5.90;75.60;;;;;;4997218;28;20436;-78
2022/03/31 09:48:19;;;;;;;10.45;3.90;;;5.70;75.20;;;;;;5007370;28;20476;-76
2022/03/31 09:50:45;;;;;;;7.55;3.85;;;5.70;75.30;;;;;;5008044;28;20444;-76
2022/03/31 09:53:13;;;;;;;6.72;2.78;;;5.70;75.90;;;;;;5006577;28;20041;-80
2022/03/31 09:55:41;;;;;;;5.82;2.38;;;5.70;75.00;;;;;;5003173;28;20044;-76
2022/03/31 09:58:08;;;;;;;4.85;2.22;;;5.70;74.70;;;;;;5006268;28;20729;-75
2022/03/31 10:00:34;;;;;;;5.80;2.30;;;5.80;73.80;;;;;;5009969;28;20187;-75
2022/03/31 10:03:00;;;;;;;7.15;2.28;;;5.80;73.40;;;;;;5007398;28;20061;-76
2022/03/31 10:05:27;;;;;;;7.88;2.33;;;6.00;72.60;;;;;;5013796;28;20049;-78
2022/03/31 10:07:54;;;;;;;4.43;2.15;;;6.10;71.90;;;;;;5013539;28;20512;-76
2022/03/31 10:10:20;;;;;;;6.93;2.40;;;6.40;71.30;;;;;;5013963;28;20481;-77
2022/03/31 10:13:07;;;;;;;8.50;2.88;;;6.40;70.20;;;;;;5016403;28;20674;-78
2022/03/31 10:15:35;;;;;;;4.25;2.40;;;7.00;70.50;;;;;;5012300;28;20041;-75
2022/03/31 10:18:01;;;;;;;4.65;2.40;;;7.10;68.60;;;;;;5006910;28;20029;-79
2022/03/31 10:20:27;;;;;;;4.88;2.80;;;7.10;67.70;;;;;;5014450;28;20038;-76
2022/03/31 10:25:45;;;;;;;5.68;3.38;;;6.80;69.10;;;;;;5006893;28;20440;-78
2022/03/31 10:28:13;;;;;;;5.45;2.92;;;7.00;69.50;;;;;;5015611;28;20758;-76
2022/03/31 10:30:39;;;;;;;5.38;2.95;;;7.00;69.30;;;;;;5016462;28;20469;-76
2022/03/31 10:33:11;;;;;;;3.95;2.53;;;7.10;69.00;;;;;;5005098;28;20046;-76
2022/03/31 10:35:40;;;;;;;5.28;2.70;;;7.30;68.90;;;;;;5010254;28;20052;-75
2022/03/31 10:38:20;;;;;;;5.35;2.80;;;7.40;68.80;;;;;;4990602;28;20041;-76
2022/03/31 10:41:12;;;;;;;4.70;2.60;;;7.80;68.30;;;;;;5010538;28;20045;-75
2022/03/31 10:43:46;;;;;;;6.47;2.17;;;7.80;67.00;;;;;;5006919;28;20046;-75
2022/03/31 10:46:20;;;;;;;7.10;2.40;;;7.90;65.10;;;;;;4998463;28;20212;-76
2022/03/31 10:49:09;;;;;;;6.72;2.67;;;8.10;65.90;;;;;;4991780;28;20152;-76
2022/03/31 10:51:37;;;;;;;7.72;2.50;;;8.10;65.30;;;;;;5006862;28;20495;-76
2022/03/31 10:54:04;;;;;;;5.50;2.47;;;8.10;65.50;;;;;;5011735;28;20132;-76
2022/03/31 10:56:32;;;;;;;8.93;2.47;;;7.90;65.70;;;;;;5012423;28;20570;-75
2022/03/31 10:59:00;;;;;;;9.95;2.42;;;8.00;65.50;;;;;;5019874;28;20034;-74
2022/03/31 11:01:33;;;;;;;5.57;2.20;;;8.10;63.70;;;;;;5011418;28;21127;-75
2022/03/31 11:04:02;;;;;;;5.18;2.03;;;8.10;63.20;;;;;;5009656;28;20060;-76
2022/03/31 11:06:29;;;;;;;4.82;2.05;;;8.10;61.50;;;;;;5009911;28;20524;-75
2022/03/31 11:08:55;;;;;;;6.82;2.20;;;8.30;61.30;;;;;;5012713;28;20029;-77
2022/03/31 11:11:28;;;;;;;4.15;1.83;;;8.40;60.00;;;;;;5014602;28;20045;-76
2022/03/31 11:13:58;;;;;;;10.30;2.17;;;8.60;60.30;;;;;;4994280;28;20032;-76
2022/03/31 11:16:37;;;;;;;4.30;2.15;;;8.40;60.70;;;;;;5000571;28;20030;-76
2022/03/31 11:19:07;;;;;;;6.70;2.45;;;8.40;61.10;;;;;;5023195;28;20063;-78
2022/03/31 11:21:40;;;;;;;4.30;1.48;;;7.80;59.10;;;;;;5019851;28;20416;-75
2022/03/31 11:24:07;;;;;;;4.38;1.50;;;7.60;57.30;;;;;;5023376;28;20092;-76
2022/03/31 11:26:40;;;;;;;6.60;2.00;;;7.60;55.90;;;;;;5011614;28;20036;-76
2022/03/31 11:29:13;;;;;;;4.50;1.80;;;7.70;57.20;;;;;;5015648;28;20092;-75
2022/03/31 11:31:46;;;;;;;5.90;1.77;;;7.80;57.10;;;;;;5013652;28;20127;-77
2022/03/31 11:34:24;;;;;;;7.88;2.15;;;7.80;58.30;;;;;;4997984;28;20037;-76
2022/03/31 11:36:53;;;;;;;8.75;2.00;;;7.90;58.40;;;;;;5010596;28;20042;-78
2022/03/31 11:39:21;;;;;;;4.32;1.83;;;8.00;58.40;;;;;;5013833;28;20033;-76
2022/03/31 11:41:46;;;;;;;7.85;1.58;;;8.40;57.10;;;;;;5009310;28;20034;-76
2022/03/31 11:44:12;;;;;;;4.38;1.55;;;8.60;56.60;;;;;;5004828;28;20919;-79
2022/03/31 11:46:49;;;;;;;6.60;1.48;;;8.70;53.40;;;;;;5010471;28;20040;-79
2022/03/31 11:49:25;;;;;;;6.60;2.08;;;8.70;52.30;;;;;;5008950;28;20037;-76
2022/03/31 11:51:56;;;;;;;4.93;1.55;;;8.70;51.80;;;;;;5032596;28;20037;-76
2022/03/31 11:54:24;;;;;;;3.67;1.50;;;8.80;50.70;;;;;;5039256;28;20045;-75
2022/03/31 11:57:04;;;;;;;3.83;1.40;;;8.90;50.90;;;;;;5021213;28;20943;-77
2022/03/31 11:59:30;;;;;;;3.42;1.50;;;9.40;49.30;;;;;;5013188;28;20036;-76
2022/03/31 12:01:56;;;;;;;4.97;1.60;;;9.60;49.80;;;;;;5005774;28;20088;-76
2022/03/31 12:04:27;;;;;;;5.63;1.65;;;9.60;50.00;;;;;;5012309;28;20084;-77
2022/03/31 12:06:55;;;;;;;6.47;2.03;;;9.90;52.20;;;;;;5006939;28;20045;-76
2022/03/31 12:09:26;;;;;;;4.85;1.63;;;10.00;50.60;;;;;;4999775;28;20037;-76
2022/03/31 12:11:56;;;;;;;6.35;1.85;;;9.50;46.70;;;;;;4999824;28;20034;-76
2022/03/31 12:14:24;;;;;;;6.03;1.90;;;9.30;49.60;;;;;;5013997;28;20045;-78
2022/03/31 12:16:59;;;;;;;5.85;1.73;;;9.00;50.70;;;;;;5011251;28;20122;-79
2022/03/31 12:19:36;;;;;;;3.85;1.55;;;8.60;51.00;;;;;;5013039;28;20128;-75
2022/03/31 12:22:02;;;;;;;5.40;2.00;;;9.10;52.70;;;;;;4997535;28;20879;-76
2022/03/31 12:24:28;;;;;;;6.65;1.70;;;9.40;52.00;;;;;;5025711;28;20056;-76
2022/03/31 12:27:05;;;;;;;4.80;1.42;;;9.60;49.60;;;;;;5030046;28;20041;-76
2022/03/31 12:29:33;;;;;;;3.88;1.40;;;9.60;47.50;;;;;;5025361;28;20121;-76
2022/03/31 12:32:06;;;;;;;4.72;1.70;;;9.60;48.40;;;;;;5021373;28;20034;-78
2022/03/31 12:34:34;;;;;;;5.22;1.38;;;9.50;48.20;;;;;;5014435;28;20049;-76
2022/03/31 12:37:00;;;;;;;3.40;1.50;;;9.40;49.40;;;;;;5016202;28;20037;-77
2022/03/31 12:39:27;;;;;;;4.03;1.50;;;9.80;49.80;;;;;;5014167;28;20036;-76
2022/03/31 12:41:57;;;;;;;4.75;1.88;;;9.90;47.60;;;;;;5017301;28;20041;-77
2022/03/31 12:44:31;;;;;;;3.55;1.30;;;9.60;46.80;;;;;;5013982;28;20037;-76
2022/03/31 12:47:01;;;;;;;5.25;1.85;;;9.70;45.10;;;;;;4998997;28;20049;-77
2022/03/31 12:49:33;;;;;;;4.60;1.50;;;9.30;48.50;;;;;;5013698;28;20060;-77
2022/03/31 12:52:11;;;;;;;2.47;1.30;;;8.90;49.00;;;;;;5017767;28;20080;-78